createdAt,value
2019-02-10T00:01:29.767Z,518.03
2019-02-10T00:06:34.928Z,334.20
2019-02-10T00:11:41.957Z,305.03
2019-02-10T00:16:49.420Z,245.83
2019-02-10T00:21:54.106Z,209.27
2019-02-10T00:26:58.435Z,292.77
2019-02-10T00:32:04.811Z,300.67
2019-02-10T00:37:08.728Z,324.50
2019-02-10T00:42:12.788Z,239.27
2019-02-10T00:47:17.008Z,251.17
2019-02-10T00:52:24.318Z,183.87
2019-02-10T00:57:28.518Z,157.80
2019-02-10T01:02:32.743Z,153.50
2019-02-10T01:07:40.382Z,305.57
2019-02-10T01:12:44.638Z,197.63
2019-02-10T01:17:48.715Z,156.93
2019-02-10T01:22:53.047Z,300.17
2019-02-10T01:27:57.149Z,342.47
2019-02-10T01:33:03.343Z,165.37
2019-02-10T01:38:07.327Z,155.20
2019-02-10T01:43:14.245Z,69.17
2019-02-10T01:48:18.447Z,169.07
2019-02-10T01:53:25.857Z,278.23
2019-02-10T01:58:30.284Z,203.50
2019-02-10T02:03:40.313Z,261.90
2019-02-10T02:08:47.623Z,305.03
2019-02-10T02:13:51.595Z,383.87
2019-02-10T02:18:55.864Z,182.13
2019-02-10T02:23:59.788Z,336.10
2019-02-10T02:29:03.729Z,78.37
2019-02-10T02:34:07.443Z,160.90
2019-02-10T02:39:12.014Z,142.10
2019-02-10T02:44:15.851Z,189.77
2019-02-10T02:49:26.204Z,137.13
2019-02-10T02:54:33.378Z,216.03
2019-02-10T02:59:37.252Z,265.53
2019-02-10T03:04:41.370Z,408.70
2019-02-10T03:09:45.206Z,350.90
2019-02-10T03:14:48.992Z,443.00
2019-02-10T03:19:53.004Z,512.03
2019-02-10T03:24:56.853Z,383.27
2019-02-10T03:30:00.912Z,372.63
2019-02-10T03:35:11.587Z,501.63
2019-02-10T03:40:15.601Z,367.30
2019-02-10T03:45:19.629Z,388.70
2019-02-10T03:50:26.743Z,372.70
2019-02-10T03:55:32.328Z,551.73
2019-02-10T04:00:37.724Z,463.80
2019-02-10T04:05:43.878Z,473.90
2019-02-10T04:10:47.752Z,552.70
2019-02-10T04:15:51.942Z,723.40
2019-02-10T04:20:59.130Z,729.37
2019-02-10T04:26:06.320Z,598.90
2019-02-10T04:31:13.595Z,735.10
2019-02-10T04:36:17.868Z,794.93
2019-02-10T04:41:21.910Z,645.30
2019-02-10T04:46:25.866Z,708.17
2019-02-10T04:51:29.915Z,641.50
2019-02-10T04:56:37.243Z,758.53
2019-02-10T05:01:41.579Z,585.03
2019-02-10T05:06:45.467Z,663.30
2019-02-10T05:11:49.309Z,508.27
2019-02-10T05:16:54.033Z,659.00
2019-02-10T05:22:01.278Z,658.73
2019-02-10T05:27:05.490Z,591.27
2019-02-10T05:32:09.233Z,523.43
2019-02-10T05:37:15.971Z,660.87
2019-02-10T05:42:20.744Z,655.90
2019-02-10T05:47:24.739Z,845.30
2019-02-10T05:52:28.809Z,648.20
2019-02-10T05:57:33.883Z,493.97
2019-02-10T06:02:38.157Z,592.37
2019-02-10T06:07:42.156Z,573.00
2019-02-10T06:12:50.575Z,581.77
2019-02-10T06:17:54.605Z,760.23
2019-02-10T06:22:58.600Z,777.57
2019-02-10T06:28:05.294Z,582.97
2019-02-10T06:33:10.982Z,609.37
2019-02-10T06:38:26.519Z,698.30
2019-02-10T06:43:34.428Z,625.97
2019-02-10T06:48:38.750Z,724.23
2019-02-10T06:53:42.744Z,496.47
2019-02-10T06:58:48.259Z,754.73
2019-02-10T07:04:19.347Z,582.57
2019-02-10T07:09:26.858Z,820.40
2019-02-10T07:14:33.646Z,724.33
2019-02-10T07:20:32.594Z,514.93
2019-02-10T07:25:54.293Z,560.37
2019-02-10T07:30:58.702Z,640.80
2019-02-10T07:36:29.431Z,639.00
2019-02-10T07:41:56.690Z,596.10
2019-02-10T07:47:35.912Z,628.30
2019-02-10T07:52:56.093Z,556.23
2019-02-10T07:58:32.681Z,671.70
2019-02-10T08:04:09.460Z,548.47
2019-02-10T08:09:35.419Z,345.07
2019-02-10T08:15:18.116Z,712.23
2019-02-10T08:20:58.587Z,739.80
2019-02-10T08:26:14.408Z,702.60
2019-02-10T08:31:34.436Z,781.77
2019-02-10T08:37:13.048Z,608.40
2019-02-10T08:42:56.050Z,784.67
2019-02-10T08:48:32.886Z,675.27
2019-02-10T08:53:40.882Z,567.23
2019-02-10T08:58:44.767Z,782.33
2019-02-10T09:03:50.121Z,999.90
2019-02-10T09:09:02.294Z,831.17
2019-02-10T09:14:02.182Z,999.90
2019-02-10T09:19:06.425Z,805.57
2019-02-10T09:24:10.143Z,880.07
2019-02-10T09:29:14.352Z,947.33
2019-02-10T09:34:19.675Z,999.90
2019-02-10T09:39:23.794Z,999.90
2019-02-10T09:44:27.742Z,991.27
2019-02-10T09:49:32.002Z,965.63
2019-02-10T09:54:36.403Z,999.90
2019-02-10T09:59:40.521Z,940.30
2019-02-10T10:04:44.276Z,965.80
2019-02-10T10:09:48.327Z,956.50
2019-02-10T10:14:52.167Z,999.90
2019-02-10T10:19:55.979Z,993.73
2019-02-10T10:25:00.701Z,999.90
2019-02-10T10:30:06.531Z,997.20
2019-02-10T10:35:12.771Z,909.97
2019-02-10T10:40:17.016Z,989.17
2019-02-10T10:45:21.247Z,999.90
2019-02-10T10:50:25.289Z,999.90
2019-02-10T10:55:29.212Z,999.90
2019-02-10T11:00:33.024Z,998.97
2019-02-10T11:26:38.612Z,999.90
2019-02-10T11:31:42.046Z,970.60
2019-02-10T11:36:46.250Z,994.23
2019-02-10T11:41:49.730Z,996.33
2019-02-10T11:46:53.580Z,999.90
2019-02-10T11:51:56.887Z,998.20
2019-02-10T11:57:00.378Z,999.90
2019-02-10T12:02:03.946Z,999.90
2019-02-10T12:07:07.907Z,999.90
2019-02-10T12:12:11.380Z,985.50
2019-02-10T12:17:15.215Z,999.90
2019-02-10T12:22:18.925Z,999.90
2019-02-10T12:27:22.307Z,942.53
2019-02-10T12:32:25.667Z,977.97
2019-02-10T12:37:32.517Z,999.90
2019-02-10T12:42:35.471Z,999.90
2019-02-10T12:47:39.535Z,999.90
2019-02-10T12:52:43.635Z,999.90
2019-02-10T12:57:47.020Z,999.90
2019-02-10T13:02:50.617Z,999.90
2019-02-10T13:07:54.229Z,986.67
2019-02-10T13:12:58.460Z,999.90
2019-02-10T13:18:01.972Z,999.50
2019-02-10T13:23:05.426Z,999.90
2019-02-10T13:28:08.988Z,999.90
2019-02-10T13:33:12.938Z,999.90
2019-02-10T13:38:16.266Z,999.90
